sensor_id;sensor_type;location;lat;lon;timestamp;pressure;altitude;pressure_sealevel;temperature;humidity
64521;BME280;50896;46.714;17.322;2023-03-18T00:00:48;100788.53;;;3.79;56.58
64521;BME280;50896;46.714;17.322;2023-03-18T00:03:15;100784.22;;;3.78;57.01
64521;BME280;50896;46.714;17.322;2023-03-18T00:05:42;100780.78;;;3.77;57.80
64521;BME280;50896;46.714;17.322;2023-03-18T00:08:09;100789.50;;;3.78;57.71
64521;BME280;50896;46.714;17.322;2023-03-18T00:10:36;100763.00;;;3.68;57.66
64521;BME280;50896;46.714;17.322;2023-03-18T00:13:03;100778.03;;;3.79;57.33
64521;BME280;50896;46.714;17.322;2023-03-18T00:15:30;100780.59;;;3.67;57.87
64521;BME280;50896;46.714;17.322;2023-03-18T00:17:57;100775.31;;;3.67;57.28
64521;BME280;50896;46.714;17.322;2023-03-18T00:20:27;100769.44;;;3.64;58.13
64521;BME280;50896;46.714;17.322;2023-03-18T00:23:07;100769.44;;;3.64;57.48
64521;BME280;50896;46.714;17.322;2023-03-18T00:25:35;100764.09;;;3.52;58.16
64521;BME280;50896;46.714;17.322;2023-03-18T00:28:04;100762.41;;;3.51;57.58
64521;BME280;50896;46.714;17.322;2023-03-18T00:30:33;100779.03;;;3.52;57.64
64521;BME280;50896;46.714;17.322;2023-03-18T00:33:00;100777.47;;;3.49;57.60
64521;BME280;50896;46.714;17.322;2023-03-18T00:35:27;100766.22;;;3.34;57.75
64521;BME280;50896;46.714;17.322;2023-03-18T00:37:56;100775.78;;;3.48;56.23
64521;BME280;50896;46.714;17.322;2023-03-18T00:40:29;100779.34;;;3.47;55.43
64521;BME280;50896;46.714;17.322;2023-03-18T00:43:09;100773.25;;;3.47;55.34
64521;BME280;50896;46.714;17.322;2023-03-18T00:45:39;100769.78;;;3.46;55.16
64521;BME280;50896;46.714;17.322;2023-03-18T00:48:07;100767.66;;;3.51;54.78
64521;BME280;50896;46.714;17.322;2023-03-18T00:50:35;100760.09;;;3.47;54.39
64521;BME280;50896;46.714;17.322;2023-03-18T00:53:03;100753.16;;;3.46;54.82
64521;BME280;50896;46.714;17.322;2023-03-18T00:55:29;100759.56;;;3.54;54.52
64521;BME280;50896;46.714;17.322;2023-03-18T00:57:57;100755.03;;;3.56;54.54
64521;BME280;50896;46.714;17.322;2023-03-18T01:00:24;100748.31;;;3.52;54.74
64521;BME280;50896;46.714;17.322;2023-03-18T01:02:54;100725.28;;;3.43;54.27
64521;BME280;50896;46.714;17.322;2023-03-18T01:05:22;100752.75;;;3.52;54.28
64521;BME280;50896;46.714;17.322;2023-03-18T01:07:49;100748.53;;;3.49;54.06
64521;BME280;50896;46.714;17.322;2023-03-18T01:10:17;100748.53;;;3.49;54.61
64521;BME280;50896;46.714;17.322;2023-03-18T01:12:45;100731.41;;;3.44;54.14
64521;BME280;50896;46.714;17.322;2023-03-18T01:15:16;100743.78;;;3.54;53.95
64521;BME280;50896;46.714;17.322;2023-03-18T01:17:44;100735.28;;;3.51;54.03
64521;BME280;50896;46.714;17.322;2023-03-18T01:20:13;100750.84;;;3.54;53.66
64521;BME280;50896;46.714;17.322;2023-03-18T01:22:44;100743.69;;;3.56;53.63
64521;BME280;50896;46.714;17.322;2023-03-18T01:25:13;100730.56;;;3.56;54.06
64521;BME280;50896;46.714;17.322;2023-03-18T01:27:46;100736.75;;;3.55;54.35
64521;BME280;50896;46.714;17.322;2023-03-18T01:30:13;100731.91;;;3.62;54.86
64521;BME280;50896;46.714;17.322;2023-03-18T01:32:41;100739.16;;;3.58;54.23
64521;BME280;50896;46.714;17.322;2023-03-18T01:35:10;100735.06;;;3.54;54.75
64521;BME280;50896;46.714;17.322;2023-03-18T01:37:43;100715.75;;;3.42;53.91
64521;BME280;50896;46.714;17.322;2023-03-18T01:40:13;100716.16;;;3.36;54.57
64521;BME280;50896;46.714;17.322;2023-03-18T01:42:42;100716.06;;;3.37;54.71
64521;BME280;50896;46.714;17.322;2023-03-18T01:45:22;100716.16;;;3.36;54.10
64521;BME280;50896;46.714;17.322;2023-03-18T01:47:55;100731.31;;;3.45;53.98
64521;BME280;50896;46.714;17.322;2023-03-18T01:50:42;100726.03;;;3.45;54.15
64521;BME280;50896;46.714;17.322;2023-03-18T01:53:13;100722.06;;;3.39;54.77
64521;BME280;50896;46.714;17.322;2023-03-18T01:55:42;100731.13;;;3.35;55.26
64521;BME280;50896;46.714;17.322;2023-03-18T01:58:26;100726.81;;;3.21;56.17
64521;BME280;50896;46.714;17.322;2023-03-18T02:00:58;100715.81;;;3.03;57.40
64521;BME280;50896;46.714;17.322;2023-03-18T02:03:27;100720.41;;;2.87;57.88
64521;BME280;50896;46.714;17.322;2023-03-18T02:05:55;100724.31;;;2.68;58.00
64521;BME280;50896;46.714;17.322;2023-03-18T02:08:22;100719.13;;;2.54;58.48
64521;BME280;50896;46.714;17.322;2023-03-18T02:10:49;100712.09;;;2.42;58.92
64521;BME280;50896;46.714;17.322;2023-03-18T02:13:16;100709.19;;;2.19;59.86
64521;BME280;50896;46.714;17.322;2023-03-18T02:15:51;100717.25;;;2.16;60.99
64521;BME280;50896;46.714;17.322;2023-03-18T02:18:25;100701.97;;;1.95;61.60
64521;BME280;50896;46.714;17.322;2023-03-18T02:27:00;100720.94;;;1.86;62.62
64521;BME280;50896;46.714;17.322;2023-03-18T02:29:37;100716.63;;;1.85;62.46
64521;BME280;50896;46.714;17.322;2023-03-18T02:32:10;100707.59;;;1.76;62.33
64521;BME280;50896;46.714;17.322;2023-03-18T02:34:41;100719.97;;;1.87;62.14
64521;BME280;50896;46.714;17.322;2023-03-18T02:37:09;100711.94;;;1.90;61.53
64521;BME280;50896;46.714;17.322;2023-03-18T02:39:38;100720.88;;;2.00;60.85
64521;BME280;50896;46.714;17.322;2023-03-18T02:42:10;100716.00;;;2.09;60.23
64521;BME280;50896;46.714;17.322;2023-03-18T02:44:45;100719.69;;;2.19;60.09
64521;BME280;50896;46.714;17.322;2023-03-18T02:47:31;100715.53;;;2.29;59.42
64521;BME280;50896;46.714;17.322;2023-03-18T02:49:58;100711.97;;;2.30;59.37
64521;BME280;50896;46.714;17.322;2023-03-18T02:52:25;100715.22;;;2.34;59.32
64521;BME280;50896;46.714;17.322;2023-03-18T02:54:53;100714.91;;;2.38;58.63
64521;BME280;50896;46.714;17.322;2023-03-18T02:57:25;100700.00;;;2.26;59.06
64521;BME280;50896;46.714;17.322;2023-03-18T02:59:53;100704.81;;;2.32;59.08
64521;BME280;50896;46.714;17.322;2023-03-18T03:02:20;100712.16;;;2.27;59.78
64521;BME280;50896;46.714;17.322;2023-03-18T03:04:48;100718.75;;;2.20;60.01
64521;BME280;50896;46.714;17.322;2023-03-18T03:07:17;100702.72;;;1.97;60.51
64521;BME280;50896;46.714;17.322;2023-03-18T03:09:49;100702.50;;;1.87;61.45
64521;BME280;50896;46.714;17.322;2023-03-18T03:12:17;100710.06;;;1.92;61.53
64521;BME280;50896;46.714;17.322;2023-03-18T03:14:49;100719.34;;;2.11;60.65
64521;BME280;50896;46.714;17.322;2023-03-18T03:17:17;100714.63;;;2.16;60.59
64521;BME280;50896;46.714;17.322;2023-03-18T03:19:44;100717.16;;;2.17;60.61
64521;BME280;50896;46.714;17.322;2023-03-18T03:22:13;100703.28;;;2.02;61.06
64521;BME280;50896;46.714;17.322;2023-03-18T03:24:39;100719.84;;;2.03;61.20
64521;BME280;50896;46.714;17.322;2023-03-18T03:27:06;100713.72;;;1.90;62.43
64521;BME280;50896;46.714;17.322;2023-03-18T03:29:33;100723.41;;;2.02;61.58
64521;BME280;50896;46.714;17.322;2023-03-18T03:32:00;100713.59;;;1.91;61.49
64521;BME280;50896;46.714;17.322;2023-03-18T03:34:28;100707.16;;;1.97;60.75
64521;BME280;50896;46.714;17.322;2023-03-18T03:36:55;100724.16;;;2.04;60.89
64521;BME280;50896;46.714;17.322;2023-03-18T03:39:24;100725.53;;;2.10;60.98
64521;BME280;50896;46.714;17.322;2023-03-18T03:41:51;100719.66;;;2.06;61.67
64521;BME280;50896;46.714;17.322;2023-03-18T03:44:18;100732.66;;;2.08;60.66
64521;BME280;50896;46.714;17.322;2023-03-18T03:46:48;100723.03;;;2.08;60.93
64521;BME280;50896;46.714;17.322;2023-03-18T03:49:15;100724.16;;;2.04;60.58
64521;BME280;50896;46.714;17.322;2023-03-18T03:51:42;100722.88;;;1.97;60.66
64521;BME280;50896;46.714;17.322;2023-03-18T03:54:10;100730.75;;;1.97;61.20
64521;BME280;50896;46.714;17.322;2023-03-18T03:56:38;100733.03;;;1.88;60.93
64521;BME280;50896;46.714;17.322;2023-03-18T03:59:05;100741.25;;;1.82;61.63
64521;BME280;50896;46.714;17.322;2023-03-18T04:01:52;100734.63;;;1.77;61.38
64521;BME280;50896;46.714;17.322;2023-03-18T04:04:19;100728.09;;;1.69;61.57
64521;BME280;50896;46.714;17.322;2023-03-18T04:06:46;100738.00;;;1.79;61.47
64521;BME280;50896;46.714;17.322;2023-03-18T04:09:13;100726.03;;;1.75;60.95
64521;BME280;50896;46.714;17.322;2023-03-18T04:11:40;100746.19;;;1.87;61.08
64521;BME280;50896;46.714;17.322;2023-03-18T04:14:08;100737.41;;;1.88;60.33
64521;BME280;50896;46.714;17.322;2023-03-18T04:16:35;100732.38;;;1.85;60.61
64521;BME280;50896;46.714;17.322;2023-03-18T04:19:02;100717.22;;;1.76;61.03
64521;BME280;50896;46.714;17.322;2023-03-18T04:21:29;100737.59;;;1.85;60.92
64521;BME280;50896;46.714;17.322;2023-03-18T04:23:56;100723.06;;;1.66;61.60
64521;BME280;50896;46.714;17.322;2023-03-18T04:26:24;100740.28;;;1.70;61.84
64521;BME280;50896;46.714;17.322;2023-03-18T04:28:52;100733.75;;;1.63;62.48
64521;BME280;50896;46.714;17.322;2023-03-18T04:31:20;100741.25;;;1.55;62.62
64521;BME280;50896;46.714;17.322;2023-03-18T04:33:47;100742.63;;;1.46;63.59
64521;BME280;50896;46.714;17.322;2023-03-18T04:36:14;100726.94;;;1.32;63.16
64521;BME280;50896;46.714;17.322;2023-03-18T04:38:41;100733.69;;;1.36;63.07
64521;BME280;50896;46.714;17.322;2023-03-18T04:41:09;100741.25;;;1.41;63.08
64521;BME280;50896;46.714;17.322;2023-03-18T04:43:36;100740.31;;;1.42;63.32
64521;BME280;50896;46.714;17.322;2023-03-18T04:46:04;100744.63;;;1.43;63.15
64521;BME280;50896;46.714;17.322;2023-03-18T04:48:32;100746.56;;;1.39;62.69
64521;BME280;50896;46.714;17.322;2023-03-18T04:51:02;100736.84;;;1.41;62.97
64521;BME280;50896;46.714;17.322;2023-03-18T04:53:30;100740.31;;;1.42;63.16
64521;BME280;50896;46.714;17.322;2023-03-18T04:55:57;100744.72;;;1.41;62.96
64521;BME280;50896;46.714;17.322;2023-03-18T04:58:31;100733.38;;;1.41;62.97
64521;BME280;50896;46.714;17.322;2023-03-18T05:01:13;100739.38;;;1.43;62.69
64521;BME280;50896;46.714;17.322;2023-03-18T05:03:40;100741.03;;;1.44;62.79
64521;BME280;50896;46.714;17.322;2023-03-18T05:06:19;100727.41;;;1.39;63.74
64521;BME280;50896;46.714;17.322;2023-03-18T05:08:57;100748.34;;;1.53;62.47
64521;BME280;50896;46.714;17.322;2023-03-18T05:11:27;100741.25;;;1.55;62.33
64521;BME280;50896;46.714;17.322;2023-03-18T05:13:57;100752.41;;;1.71;60.89
64521;BME280;50896;46.714;17.322;2023-03-18T05:16:24;100741.56;;;1.78;59.94
64521;BME280;50896;46.714;17.322;2023-03-18T05:18:52;100754.72;;;1.91;59.05
64521;BME280;50896;46.714;17.322;2023-03-18T05:21:18;100751.97;;;2.07;58.33
64521;BME280;50896;46.714;17.322;2023-03-18T05:23:46;100758.41;;;2.15;57.58
64521;BME280;50896;46.714;17.322;2023-03-18T05:26:12;100749.50;;;2.18;57.06
64521;BME280;50896;46.714;17.322;2023-03-18T05:28:42;100766.09;;;2.31;56.74
64521;BME280;50896;46.714;17.322;2023-03-18T05:31:35;100755.59;;;2.31;56.98
64521;BME280;50896;46.714;17.322;2023-03-18T05:34:03;100765.50;;;2.41;56.92
64521;BME280;50896;46.714;17.322;2023-03-18T05:36:33;100757.03;;;2.50;57.07
64521;BME280;50896;46.714;17.322;2023-03-18T05:39:04;100751.78;;;2.50;56.82
64521;BME280;50896;46.714;17.322;2023-03-18T05:41:31;100764.50;;;2.69;55.68
64521;BME280;50896;46.714;17.322;2023-03-18T05:43:58;100742.91;;;2.65;55.83
64521;BME280;50896;46.714;17.322;2023-03-18T05:46:27;100762.00;;;2.80;55.54
64521;BME280;50896;46.714;17.322;2023-03-18T05:49:14;100762.53;;;2.85;55.76
64521;BME280;50896;46.714;17.322;2023-03-18T05:51:52;100760.03;;;2.97;54.91
64521;BME280;50896;46.714;17.322;2023-03-18T05:54:32;100758.47;;;3.07;54.28
64521;BME280;50896;46.714;17.322;2023-03-18T05:56:58;100766.44;;;3.05;54.68
64521;BME280;50896;46.714;17.322;2023-03-18T05:59:26;100768.53;;;3.13;54.45
64521;BME280;50896;46.714;17.322;2023-03-18T06:01:56;100760.34;;;3.18;54.56
64521;BME280;50896;46.714;17.322;2023-03-18T06:04:24;100749.50;;;3.10;55.42
64521;BME280;50896;46.714;17.322;2023-03-18T06:06:52;100769.59;;;3.23;55.23
64521;BME280;50896;46.714;17.322;2023-03-18T06:09:20;100770.84;;;3.31;54.55
64521;BME280;50896;46.714;17.322;2023-03-18T06:11:47;100768.44;;;3.40;54.58
64521;BME280;50896;46.714;17.322;2023-03-18T06:14:14;100779.88;;;3.39;54.96
64521;BME280;50896;46.714;17.322;2023-03-18T06:16:42;100772.81;;;3.53;54.11
64521;BME280;50896;46.714;17.322;2023-03-18T06:19:10;100767.25;;;3.57;54.73
64521;BME280;50896;46.714;17.322;2023-03-18T06:21:38;100775.50;;;3.77;54.18
64521;BME280;50896;46.714;17.322;2023-03-18T06:24:06;100755.63;;;3.73;53.40
64521;BME280;50896;46.714;17.322;2023-03-18T06:26:33;100775.91;;;3.84;53.86
64521;BME280;50896;46.714;17.322;2023-03-18T06:29:02;100766.94;;;3.86;53.45
64521;BME280;50896;46.714;17.322;2023-03-18T06:31:29;100786.47;;;4.08;52.61
64521;BME280;50896;46.714;17.322;2023-03-18T06:33:57;100787.28;;;4.08;52.77
64521;BME280;50896;46.714;17.322;2023-03-18T06:36:29;100795.59;;;4.15;52.48
64521;BME280;50896;46.714;17.322;2023-03-18T06:38:57;100798.50;;;4.23;52.51
64521;BME280;50896;46.714;17.322;2023-03-18T06:41:25;100791.22;;;4.27;52.35
64521;BME280;50896;46.714;17.322;2023-03-18T06:44:16;100796.66;;;4.37;51.99
64521;BME280;50896;46.714;17.322;2023-03-18T06:46:43;100796.19;;;4.43;52.13
64521;BME280;50896;46.714;17.322;2023-03-18T06:49:11;100807.59;;;4.55;50.77
64521;BME280;50896;46.714;17.322;2023-03-18T06:51:44;100803.91;;;4.57;51.00
64521;BME280;50896;46.714;17.322;2023-03-18T06:54:12;100811.25;;;4.65;50.29
64521;BME280;50896;46.714;17.322;2023-03-18T06:56:41;100806.22;;;4.62;50.43
64521;BME280;50896;46.714;17.322;2023-03-18T06:59:16;100819.91;;;4.78;50.49
64521;BME280;50896;46.714;17.322;2023-03-18T07:01:43;100824.09;;;4.81;50.26
64521;BME280;50896;46.714;17.322;2023-03-18T07:04:11;100820.69;;;4.92;50.37
64521;BME280;50896;46.714;17.322;2023-03-18T07:06:38;100819.75;;;5.04;50.36
64521;BME280;50896;46.714;17.322;2023-03-18T07:09:05;100803.19;;;5.02;50.25
64521;BME280;50896;46.714;17.322;2023-03-18T07:11:32;100814.75;;;5.12;51.33
64521;BME280;50896;46.714;17.322;2023-03-18T07:14:05;100822.31;;;5.28;50.16
64521;BME280;50896;46.714;17.322;2023-03-18T07:16:34;100816.22;;;5.39;49.22
64521;BME280;50896;46.714;17.322;2023-03-18T07:19:02;100813.56;;;5.51;49.14
64521;BME280;50896;46.714;17.322;2023-03-18T07:21:30;100807.84;;;5.57;49.56
64521;BME280;50896;46.714;17.322;2023-03-18T07:23:57;100816.69;;;5.67;49.03
64521;BME280;50896;46.714;17.322;2023-03-18T07:26:25;100813.31;;;5.65;50.45
64521;BME280;50896;46.714;17.322;2023-03-18T07:28:52;100809.59;;;5.79;50.32
64521;BME280;50896;46.714;17.322;2023-03-18T07:31:18;100802.53;;;5.79;49.73
64521;BME280;50896;46.714;17.322;2023-03-18T07:33:45;100809.00;;;5.87;49.44
64521;BME280;50896;46.714;17.322;2023-03-18T07:36:12;100806.13;;;6.01;49.31
64521;BME280;50896;46.714;17.322;2023-03-18T07:38:39;100810.94;;;6.07;48.74
64521;BME280;50896;46.714;17.322;2023-03-18T07:41:06;100809.47;;;6.14;49.39
64521;BME280;50896;46.714;17.322;2023-03-18T07:43:33;100830.03;;;6.32;49.41
64521;BME280;50896;46.714;17.322;2023-03-18T07:46:00;100826.94;;;6.38;50.28
64521;BME280;50896;46.714;17.322;2023-03-18T07:48:28;100830.78;;;6.34;50.39
64521;BME280;50896;46.714;17.322;2023-03-18T07:50:56;100817.31;;;6.37;50.34
64521;BME280;50896;46.714;17.322;2023-03-18T07:53:25;100818.50;;;6.44;51.00
64521;BME280;50896;46.714;17.322;2023-03-18T07:55:53;100834.28;;;6.56;51.96
64521;BME280;50896;46.714;17.322;2023-03-18T07:58:20;100831.88;;;6.64;50.90
64521;BME280;50896;46.714;17.322;2023-03-18T08:00:47;100833.16;;;6.70;51.13
64521;BME280;50896;46.714;17.322;2023-03-18T08:03:15;100840.19;;;6.80;52.09
64521;BME280;50896;46.714;17.322;2023-03-18T08:05:42;100834.59;;;6.95;58.02
64521;BME280;50896;46.714;17.322;2023-03-18T08:08:09;100831.00;;;6.96;61.03
64521;BME280;50896;46.714;17.322;2023-03-18T08:10:36;100831.53;;;6.90;62.67
64521;BME280;50896;46.714;17.322;2023-03-18T08:13:03;100844.09;;;6.97;64.86
64521;BME280;50896;46.714;17.322;2023-03-18T08:15:30;100843.38;;;6.95;63.93
64521;BME280;50896;46.714;17.322;2023-03-18T08:17:57;100838.44;;;7.02;65.17
64521;BME280;50896;46.714;17.322;2023-03-18T08:20:25;100844.53;;;7.03;63.83
64521;BME280;50896;46.714;17.322;2023-03-18T08:22:52;100841.19;;;7.00;61.93
64521;BME280;50896;46.714;17.322;2023-03-18T08:25:19;100841.44;;;6.97;64.36
64521;BME280;50896;46.714;17.322;2023-03-18T08:27:47;100821.31;;;6.85;65.47
64521;BME280;50896;46.714;17.322;2023-03-18T08:30:15;100820.28;;;6.97;65.79
64521;BME280;50896;46.714;17.322;2023-03-18T08:32:42;100830.63;;;7.00;68.77
64521;BME280;50896;46.714;17.322;2023-03-18T08:35:10;100833.06;;;7.13;67.83
64521;BME280;50896;46.714;17.322;2023-03-18T08:37:38;100830.22;;;7.26;64.18
64521;BME280;50896;46.714;17.322;2023-03-18T08:40:05;100833.47;;;7.30;65.60
64521;BME280;50896;46.714;17.322;2023-03-18T08:42:32;100830.53;;;7.33;61.13
64521;BME280;50896;46.714;17.322;2023-03-18T08:44:59;100819.34;;;7.50;49.27
64521;BME280;50896;46.714;17.322;2023-03-18T08:47:25;100820.66;;;7.66;48.32
64521;BME280;50896;46.714;17.322;2023-03-18T08:49:52;100822.69;;;7.83;47.82
64521;BME280;50896;46.714;17.322;2023-03-18T08:52:19;100797.34;;;7.91;46.69
64521;BME280;50896;46.714;17.322;2023-03-18T08:54:47;100814.94;;;8.11;48.21
64521;BME280;50896;46.714;17.322;2023-03-18T08:57:14;100822.09;;;8.20;47.75
64521;BME280;50896;46.714;17.322;2023-03-18T08:59:41;100813.56;;;8.17;52.68
64521;BME280;50896;46.714;17.322;2023-03-18T09:02:13;100820.78;;;8.15;63.29
64521;BME280;50896;46.714;17.322;2023-03-18T09:04:43;100799.84;;;7.92;62.61
64521;BME280;50896;46.714;17.322;2023-03-18T09:07:11;100826.06;;;8.05;63.73
64521;BME280;50896;46.714;17.322;2023-03-18T09:09:38;100824.41;;;8.04;56.91
64521;BME280;50896;46.714;17.322;2023-03-18T09:12:09;100820.53;;;8.08;56.25
64521;BME280;50896;46.714;17.322;2023-03-18T09:14:38;100812.59;;;8.08;55.91
64521;BME280;50896;46.714;17.322;2023-03-18T09:17:05;100812.31;;;8.21;53.97
64521;BME280;50896;46.714;17.322;2023-03-18T09:19:32;100808.44;;;8.35;48.01
64521;BME280;50896;46.714;17.322;2023-03-18T09:21:59;100812.53;;;8.49;52.85
64521;BME280;50896;46.714;17.322;2023-03-18T09:24:26;100802.84;;;8.38;59.60
64521;BME280;50896;46.714;17.322;2023-03-18T09:26:53;100812.19;;;8.42;60.65
64521;BME280;50896;46.714;17.322;2023-03-18T09:29:19;100817.50;;;8.42;63.54
64521;BME280;50896;46.714;17.322;2023-03-18T09:31:46;100817.50;;;8.42;64.56
64521;BME280;50896;46.714;17.322;2023-03-18T09:34:13;100812.81;;;8.46;51.44
64521;BME280;50896;46.714;17.322;2023-03-18T09:36:41;100814.31;;;8.48;58.00
64521;BME280;50896;46.714;17.322;2023-03-18T09:39:14;100789.91;;;8.45;55.27
64521;BME280;50896;46.714;17.322;2023-03-18T09:45:27;100806.78;;;8.83;50.43
64521;BME280;50896;46.714;17.322;2023-03-18T09:51:23;100800.72;;;9.20;45.30
64521;BME280;50896;46.714;17.322;2023-03-18T09:53:58;100782.91;;;9.40;42.97
64521;BME280;50896;46.714;17.322;2023-03-18T09:56:30;100797.25;;;9.47;42.99
64521;BME280;50896;46.714;17.322;2023-03-18T09:59:01;100779.97;;;9.43;45.00
64521;BME280;50896;46.714;17.322;2023-03-18T10:01:33;100790.13;;;9.57;44.10
64521;BME280;50896;46.714;17.322;2023-03-18T10:04:09;100795.91;;;9.71;42.81
64521;BME280;50896;46.714;17.322;2023-03-18T10:06:41;100781.19;;;9.77;42.72
64521;BME280;50896;46.714;17.322;2023-03-18T10:09:28;100772.81;;;9.81;43.57
64521;BME280;50896;46.714;17.322;2023-03-18T10:12:14;100763.63;;;9.75;43.03
64521;BME280;50896;46.714;17.322;2023-03-18T10:14:49;100757.91;;;9.70;42.47
64521;BME280;50896;46.714;17.322;2023-03-18T10:17:30;100766.88;;;9.87;42.93
64521;BME280;50896;46.714;17.322;2023-03-18T10:20:00;100772.81;;;9.81;43.86
64521;BME280;50896;46.714;17.322;2023-03-18T10:25:42;100766.91;;;10.05;42.69
64521;BME280;50896;46.714;17.322;2023-03-18T10:32:07;100770.72;;;10.21;43.11
64521;BME280;50896;46.714;17.322;2023-03-18T10:37:22;100770.66;;;10.31;42.58
64521;BME280;50896;46.714;17.322;2023-03-18T10:39:53;100769.31;;;10.45;42.40
64521;BME280;50896;46.714;17.322;2023-03-18T10:42:23;100772.94;;;10.43;42.52
64521;BME280;50896;46.714;17.322;2023-03-18T10:44:54;100765.84;;;10.44;41.85
64521;BME280;50896;46.714;17.322;2023-03-18T10:47:27;100767.56;;;10.53;42.27
64521;BME280;50896;46.714;17.322;2023-03-18T10:50:11;100771.41;;;10.77;41.72
64521;BME280;50896;46.714;17.322;2023-03-18T10:55:27;100764.69;;;10.91;42.97
64521;BME280;50896;46.714;17.322;2023-03-18T10:57:54;100742.53;;;10.82;43.36
64521;BME280;50896;46.714;17.322;2023-03-18T11:00:28;100763.63;;;10.84;50.11
64521;BME280;50896;46.714;17.322;2023-03-18T11:02:55;100754.25;;;10.71;51.99
64521;BME280;50896;46.714;17.322;2023-03-18T11:05:25;100750.38;;;10.66;48.22
64521;BME280;50896;46.714;17.322;2023-03-18T11:08:01;100747.78;;;10.74;49.39
64521;BME280;50896;46.714;17.322;2023-03-18T11:10:37;100738.34;;;10.80;42.75
64521;BME280;50896;46.714;17.322;2023-03-18T11:13:15;100740.47;;;11.02;48.06
64521;BME280;50896;46.714;17.322;2023-03-18T11:15:47;100740.47;;;11.02;50.27
64521;BME280;50896;46.714;17.322;2023-03-18T11:18:18;100741.22;;;11.13;50.47
64521;BME280;50896;46.714;17.322;2023-03-18T11:20:53;100746.44;;;11.22;45.50
64521;BME280;50896;46.714;17.322;2023-03-18T11:26:27;100731.06;;;11.51;50.82
64521;BME280;50896;46.714;17.322;2023-03-18T11:29:01;100738.91;;;11.52;52.80
64521;BME280;50896;46.714;17.322;2023-03-18T11:31:30;100717.97;;;11.66;48.63
64521;BME280;50896;46.714;17.322;2023-03-18T11:33:58;100704.72;;;11.82;45.22
64521;BME280;50896;46.714;17.322;2023-03-18T11:36:26;100701.59;;;11.95;43.16
64521;BME280;50896;46.714;17.322;2023-03-18T11:39:00;100714.09;;;12.19;40.25
64521;BME280;50896;46.714;17.322;2023-03-18T11:41:27;100717.13;;;12.41;39.26
64521;BME280;50896;46.714;17.322;2023-03-18T11:43:58;100702.59;;;12.68;36.83
64521;BME280;50896;46.714;17.322;2023-03-18T11:49:17;100702.19;;;14.30;35.31
64521;BME280;50896;46.714;17.322;2023-03-18T11:54:59;100677.34;;;16.79;31.65
64521;BME280;50896;46.714;17.322;2023-03-18T12:05:52;100675.16;;;19.45;27.04
64521;BME280;50896;46.714;17.322;2023-03-18T12:11:03;100658.81;;;16.05;31.48
64521;BME280;50896;46.714;17.322;2023-03-18T12:30:57;100657.19;;;12.93;35.35
64521;BME280;50896;46.714;17.322;2023-03-18T12:49:13;100648.97;;;12.38;38.37
64521;BME280;50896;46.714;17.322;2023-03-18T12:52:00;100644.81;;;12.36;35.71
64521;BME280;50896;46.714;17.322;2023-03-18T12:54:42;100647.81;;;12.33;35.84
64521;BME280;50896;46.714;17.322;2023-03-18T12:57:14;100633.81;;;12.22;35.45
64521;BME280;50896;46.714;17.322;2023-03-18T12:59:57;100631.31;;;12.12;41.39
64521;BME280;50896;46.714;17.322;2023-03-18T13:02:39;100635.47;;;12.07;43.27
64521;BME280;50896;46.714;17.322;2023-03-18T13:05:21;100638.16;;;12.23;37.18
64521;BME280;50896;46.714;17.322;2023-03-18T13:08:09;100641.63;;;12.32;34.54
64521;BME280;50896;46.714;17.322;2023-03-18T13:10:49;100631.66;;;12.18;35.17
64521;BME280;50896;46.714;17.322;2023-03-18T13:13:20;100639.31;;;12.21;40.34
64521;BME280;50896;46.714;17.322;2023-03-18T13:15:50;100611.00;;;11.95;44.47
64521;BME280;50896;46.714;17.322;2023-03-18T13:18:25;100619.00;;;11.95;45.13
64521;BME280;50896;46.714;17.322;2023-03-18T13:20:55;100618.47;;;11.91;42.92
64521;BME280;50896;46.714;17.322;2023-03-18T13:23:36;100609.81;;;11.73;44.07
64521;BME280;50896;46.714;17.322;2023-03-18T13:26:19;100636.59;;;11.71;44.17
64521;BME280;50896;46.714;17.322;2023-03-18T13:37:33;100602.16;;;11.70;42.43
64521;BME280;50896;46.714;17.322;2023-03-18T13:41:06;100612.97;;;11.93;37.49
64521;BME280;50896;46.714;17.322;2023-03-18T13:43:12;100609.00;;;12.05;39.84
64521;BME280;50896;46.714;17.322;2023-03-18T13:45:46;100601.84;;;12.06;38.73
64521;BME280;50896;46.714;17.322;2023-03-18T13:48:19;100603.19;;;12.10;42.23
64521;BME280;50896;46.714;17.322;2023-03-18T13:50:49;100604.00;;;12.27;35.71
64521;BME280;50896;46.714;17.322;2023-03-18T13:53:24;100604.00;;;12.35;34.52
64521;BME280;50896;46.714;17.322;2023-03-18T13:56:03;100596.44;;;12.55;33.89
64521;BME280;50896;46.714;17.322;2023-03-18T13:58:42;100588.09;;;12.58;35.26
64521;BME280;50896;46.714;17.322;2023-03-18T14:13:50;100595.03;;;12.84;33.68
64521;BME280;50896;46.714;17.322;2023-03-18T14:16:21;100570.69;;;12.79;33.51
64521;BME280;50896;46.714;17.322;2023-03-18T14:19:05;100579.31;;;12.89;33.96
64521;BME280;50896;46.714;17.322;2023-03-18T14:21:43;100586.97;;;13.01;34.09
64521;BME280;50896;46.714;17.322;2023-03-18T14:27:25;100581.78;;;13.62;32.91
64521;BME280;50896;46.714;17.322;2023-03-18T14:32:04;100571.88;;;13.85;30.40
64521;BME280;50896;46.714;17.322;2023-03-18T14:34:56;100561.75;;;13.81;31.09
64521;BME280;50896;46.714;17.322;2023-03-18T14:37:31;100574.28;;;13.80;32.38
64521;BME280;50896;46.714;17.322;2023-03-18T14:40:13;100560.25;;;13.63;32.02
64521;BME280;50896;46.714;17.322;2023-03-18T14:45:26;100565.19;;;13.43;32.07
64521;BME280;50896;46.714;17.322;2023-03-18T14:47:57;100565.81;;;13.22;33.51
64521;BME280;50896;46.714;17.322;2023-03-18T14:50:36;100571.38;;;13.12;34.12
64521;BME280;50896;46.714;17.322;2023-03-18T14:53:28;100548.97;;;12.90;34.24